Time;durP1;ratioP1;P1;durP2;ratioP2;P2;SDS_P1;SDS_P2;PMS_P1;PMS_P2;Temp;Humidity;BMP_temperature;BMP_pressure;BME280_temperature;BME280_humidity;BME280_pressure;Samples;Min_cycle;Max_cycle;Signal;HPM_P1;HPM_P2
2023/04/07 00:01:17;;;;;;;18.60;14.75;;;;;;;6.98;46.00;99240.38;5017210;28;20021;-86
2023/04/07 00:03:42;;;;;;;19.73;14.30;;;;;;;7.09;46.82;99236.22;5035930;28;20057;-85
2023/04/07 00:06:09;;;;;;;19.67;13.90;;;;;;;7.14;45.76;99240.84;5054776;28;20033;-86
2023/04/07 00:08:34;;;;;;;26.52;16.25;;;;;;;7.14;45.61;99241.66;5036897;28;20186;-86
2023/04/07 00:11:00;;;;;;;19.63;13.85;;;;;;;7.08;45.07;99223.44;5036706;28;20108;-86
2023/04/07 00:13:25;;;;;;;22.10;14.38;;;;;;;7.13;45.39;99241.97;5036885;28;20032;-85
2023/04/07 00:15:51;;;;;;;23.58;14.85;;;;;;;7.13;45.61;99237.25;5036637;28;20025;-86
2023/04/07 00:18:16;;;;;;;21.65;14.63;;;;;;;7.02;45.42;99244.22;5036429;28;20503;-86
2023/04/07 00:20:42;;;;;;;21.17;14.50;;;;;;;6.91;45.22;99238.06;5033581;28;20037;-86
2023/04/07 00:23:07;;;;;;;19.27;14.52;;;;;;;6.82;45.74;99237.19;5036323;28;20036;-86
2023/04/07 00:25:33;;;;;;;21.92;13.95;;;;;;;6.90;45.82;99246.72;5054147;28;20044;-85
2023/04/07 00:27:58;;;;;;;20.30;14.68;;;;;;;6.98;46.17;99237.63;5053195;28;20037;-87
2023/04/07 00:30:24;;;;;;;22.30;13.90;;;;;;;7.03;46.23;99234.72;5026729;28;20036;-86
2023/04/07 00:32:50;;;;;;;20.50;14.20;;;;;;;6.96;46.58;99239.91;5050190;28;20177;-86
2023/04/07 00:35:16;;;;;;;18.58;14.02;;;;;;;6.93;45.67;99232.19;5036187;28;20056;-86
2023/04/07 00:37:41;;;;;;;21.23;14.63;;;;;;;6.86;45.88;99224.28;5052972;28;20028;-86
2023/04/07 00:40:08;;;;;;;17.55;14.05;;;;;;;6.78;45.77;99239.78;5035418;28;20586;-86
2023/04/07 00:42:33;;;;;;;20.60;13.68;;;;;;;6.68;45.50;99243.59;5036478;28;20543;-85
2023/04/07 00:44:59;;;;;;;19.23;14.10;;;;;;;6.45;45.06;99245.53;5035745;28;20028;-86
2023/04/07 00:47:25;;;;;;;22.70;15.27;;;;;;;6.51;45.49;99237.91;5035567;28;20532;-86
2023/04/07 00:49:50;;;;;;;19.35;13.73;;;;;;;6.14;45.25;99249.00;5053807;28;20100;-86
2023/04/07 00:52:17;;;;;;;17.67;12.23;;;;;;;5.63;45.73;99248.88;5034709;28;20442;-86
2023/04/07 00:54:45;;;;;;;18.13;13.82;;;;;;;5.52;46.45;99264.06;5035718;28;20067;-87
2023/04/07 00:57:10;;;;;;;18.67;13.30;;;;;;;5.34;46.84;99244.44;5032755;28;20048;-87
2023/04/07 00:59:36;;;;;;;15.68;11.38;;;;;;;5.15;46.52;99234.22;5025931;28;20037;-88
2023/04/07 01:02:14;;;;;;;19.02;13.70;;;;;;;5.24;47.88;99250.16;5053400;28;20025;-87
2023/04/07 01:04:53;;;;;;;19.42;12.30;;;;;;;5.22;47.78;99246.88;5035893;28;20017;-86
2023/04/07 01:07:26;;;;;;;20.52;13.73;;;;;;;5.40;48.00;99253.50;5034133;28;20503;-87
2023/04/07 01:10:05;;;;;;;18.70;12.30;;;;;;;5.37;46.78;99254.91;5017802;28;20025;-86
2023/04/07 01:12:43;;;;;;;17.85;12.50;;;;;;;5.28;47.07;99245.66;5034362;28;20025;-87
2023/04/07 01:15:11;;;;;;;23.00;13.20;;;;;;;5.21;48.03;99251.59;5032219;28;20120;-86
2023/04/07 01:17:41;;;;;;;15.90;12.77;;;;;;;5.29;48.38;99247.28;5017577;28;20124;-87
2023/04/07 01:20:11;;;;;;;19.35;13.40;;;;;;;5.37;49.19;99248.53;5053779;28;20029;-87
2023/04/07 01:22:42;;;;;;;16.35;11.80;;;;;;;5.26;48.32;99247.91;5035462;28;20033;-86
2023/04/07 01:25:37;;;;;;;15.88;12.05;;;;;;;5.23;49.22;99252.09;5035209;28;20037;-86
2023/04/07 01:28:11;;;;;;;18.05;12.73;;;;;;;5.33;49.18;99254.69;5032828;28;20029;-86
2023/04/07 01:30:40;;;;;;;17.35;11.98;;;;;;;5.40;48.39;99243.19;5034840;28;20029;-86
2023/04/07 01:33:07;;;;;;;17.40;12.68;;;;;;;5.43;48.59;99250.94;5035159;28;20487;-87
2023/04/07 01:35:35;;;;;;;16.27;12.43;;;;;;;5.40;48.94;99245.97;5034710;28;20542;-86
2023/04/07 01:38:03;;;;;;;20.92;12.80;;;;;;;5.28;47.81;99252.03;5035066;28;20039;-86
2023/04/07 01:40:30;;;;;;;20.13;12.00;;;;;;;5.24;47.95;99250.16;5034828;28;20032;-86
2023/04/07 01:42:56;;;;;;;19.65;12.73;;;;;;;5.14;48.27;99256.72;5034590;28;20036;-86
2023/04/07 01:45:25;;;;;;;19.52;13.23;;;;;;;5.10;48.42;99261.22;5034677;28;20096;-87
2023/04/07 01:47:52;;;;;;;17.33;13.23;;;;;;;4.95;48.96;99260.34;5052486;28;20024;-86
2023/04/07 01:50:20;;;;;;;21.08;13.25;;;;;;;4.88;49.07;99259.91;5034554;28;20403;-86
2023/04/07 01:52:46;;;;;;;19.23;13.10;;;;;;;5.02;48.65;99259.97;5051089;28;20167;-87
2023/04/07 01:55:11;;;;;;;22.80;13.75;;;;;;;5.05;49.73;99267.66;5053194;28;20079;-86
2023/04/07 01:57:37;;;;;;;20.08;13.02;;;;;;;4.92;49.09;99222.16;5034865;28;20398;-87
2023/04/07 02:00:03;;;;;;;19.98;12.50;;;;;;;5.14;48.56;99235.34;5034544;28;20029;-87
2023/04/07 02:02:29;;;;;;;19.80;12.50;;;;;;;5.32;47.96;99257.78;5034014;28;20021;-86
2023/04/07 02:04:58;;;;;;;21.92;12.07;;;;;;;5.27;48.67;99249.56;5034888;28;20026;-87
2023/04/07 02:07:41;;;;;;;20.80;13.53;;;;;;;5.30;49.12;99254.47;5046725;28;20162;-86
2023/04/07 02:10:12;;;;;;;19.80;12.73;;;;;;;5.53;48.85;99262.94;5032764;28;20506;-86
2023/04/07 02:12:40;;;;;;;21.42;12.05;;;;;;;5.59;49.19;99247.88;5034489;28;20056;-86
2023/04/07 02:15:08;;;;;;;21.58;13.30;;;;;;;5.62;48.46;99258.34;5039271;28;20124;-87
2023/04/07 02:17:36;;;;;;;19.70;12.30;;;;;;;5.80;48.92;99253.03;5026547;28;20028;-87
2023/04/07 02:20:03;;;;;;;17.15;12.48;;;;;;;5.92;47.82;99250.53;5031880;28;20412;-86
2023/04/07 02:22:30;;;;;;;16.45;12.07;;;;;;;5.97;47.12;99250.44;5034467;28;20025;-87
2023/04/07 02:24:56;;;;;;;20.05;12.93;;;;;;;5.90;48.03;99248.06;5034040;28;20029;-86
2023/04/07 02:27:21;;;;;;;21.80;12.98;;;;;;;6.00;47.78;99230.38;5033820;28;20107;-86
2023/04/07 02:29:47;;;;;;;19.85;12.80;;;;;;;6.20;47.31;99244.97;5033836;28;20032;-86
2023/04/07 02:32:12;;;;;;;18.52;12.07;;;;;;;6.26;47.72;99249.28;5034087;28;20020;-86
2023/04/07 02:34:38;;;;;;;21.90;14.43;;;;;;;6.32;47.51;99250.81;5033080;28;20107;-86
2023/04/07 02:37:03;;;;;;;24.95;19.98;;;;;;;6.27;47.67;99250.91;5034074;28;20546;-86
2023/04/07 02:39:29;;;;;;;19.20;13.77;;;;;;;6.17;46.73;99254.75;5033655;28;20029;-86
2023/04/07 02:41:54;;;;;;;17.50;13.57;;;;;;;6.14;46.81;99243.44;5033921;28;20060;-86
2023/04/07 02:44:20;;;;;;;22.63;13.40;;;;;;;6.02;47.49;99249.53;5033584;28;20025;-86
2023/04/07 02:46:45;;;;;;;19.80;13.20;;;;;;;6.18;47.36;99256.41;5033936;28;20033;-87
2023/04/07 02:49:11;;;;;;;19.23;12.43;;;;;;;6.14;47.53;99240.66;5033987;28;20462;-86
2023/04/07 02:51:36;;;;;;;19.00;13.30;;;;;;;6.15;46.89;99253.41;5050352;28;20029;-87
2023/04/07 02:54:01;;;;;;;20.85;13.02;;;;;;;5.75;47.10;99253.94;5033741;28;20033;-87
2023/04/07 02:56:27;;;;;;;19.58;12.43;;;;;;;6.00;47.13;99243.44;5034008;28;20037;-86
2023/04/07 02:58:52;;;;;;;19.63;12.23;;;;;;;6.02;47.01;99253.13;5032391;28;20032;-87
2023/04/07 03:01:18;;;;;;;16.63;12.68;;;;;;;5.97;46.93;99253.19;5033599;28;20036;-86
2023/04/07 03:03:46;;;;;;;19.17;12.48;;;;;;;5.77;47.24;99260.00;5033749;28;20040;-87
2023/04/07 03:06:12;;;;;;;18.77;12.65;;;;;;;5.75;47.55;99262.25;5032752;28;20029;-86
2023/04/07 03:08:37;;;;;;;17.63;12.75;;;;;;;5.79;48.41;99262.44;5033590;28;20572;-86
2023/04/07 03:11:03;;;;;;;17.98;12.15;;;;;;;5.62;48.02;99250.84;5033198;28;20455;-87
2023/04/07 03:13:29;;;;;;;18.67;13.32;;;;;;;5.73;47.73;99253.41;5032931;28;20055;-87
2023/04/07 03:15:55;;;;;;;22.65;13.70;;;;;;;5.64;48.54;99253.28;5033550;28;20126;-86
2023/04/07 03:18:21;;;;;;;17.55;13.50;;;;;;;5.85;48.32;99253.75;5033542;28;20021;-86
2023/04/07 03:20:47;;;;;;;17.60;14.88;;;;;;;5.82;48.50;99247.97;5033432;28;20040;-86
2023/04/07 03:23:13;;;;;;;19.63;13.30;;;;;;;5.90;49.55;99250.00;5032727;28;20174;-87
2023/04/07 03:25:39;;;;;;;23.45;13.15;;;;;;;6.02;48.30;99267.00;5033438;28;20119;-86
2023/04/07 03:28:05;;;;;;;22.15;14.05;;;;;;;5.97;48.58;99255.97;5031952;28;20041;-86
2023/04/07 03:30:30;;;;;;;20.13;13.02;;;;;;;6.03;48.43;99260.34;5029966;28;20103;-86
2023/04/07 03:32:56;;;;;;;19.83;13.63;;;;;;;5.86;49.03;99243.44;5033654;28;20057;-86
2023/04/07 03:35:21;;;;;;;24.73;13.48;;;;;;;6.01;48.66;99273.69;5028300;28;20079;-86
2023/04/07 03:37:47;;;;;;;18.63;12.27;;;;;;;5.80;48.81;99247.47;5015018;28;20104;-86
2023/04/07 03:40:13;;;;;;;26.45;14.88;;;;;;;5.98;48.42;99263.19;5030112;28;20472;-86
2023/04/07 03:42:38;;;;;;;25.48;16.67;;;;;;;6.09;48.05;99269.34;5033003;28;20021;-86
2023/04/07 03:45:04;;;;;;;26.83;16.20;;;;;;;5.94;48.05;99261.31;5033434;28;20033;-86
2023/04/07 03:47:30;;;;;;;20.45;14.15;;;;;;;6.12;47.74;99267.91;5033505;28;20035;-86
2023/04/07 03:49:56;;;;;;;19.70;13.93;;;;;;;6.12;47.14;99273.47;5051277;28;20025;-86
2023/04/07 03:52:21;;;;;;;18.10;13.05;;;;;;;6.00;46.59;99280.34;5033631;28;20487;-87
2023/04/07 03:54:47;;;;;;;19.15;12.73;;;;;;;6.11;45.89;99274.63;5033432;28;20029;-86
2023/04/07 03:57:12;;;;;;;19.70;12.98;;;;;;;6.11;45.96;99274.63;5032267;28;20044;-86
2023/04/07 03:59:38;;;;;;;19.85;13.00;;;;;;;5.97;45.34;99261.53;5051021;28;20518;-86
2023/04/07 04:02:03;;;;;;;19.27;13.75;;;;;;;6.03;45.96;99287.28;5033702;28;20115;-86
2023/04/07 04:04:29;;;;;;;23.58;13.32;;;;;;;5.77;45.78;99260.00;5051193;28;20547;-86
2023/04/07 04:06:54;;;;;;;23.73;15.70;;;;;;;5.82;46.16;99289.63;5033043;28;20025;-86
2023/04/07 04:09:20;;;;;;;22.10;15.00;;;;;;;5.87;46.37;99289.50;5033115;28;20024;-86
2023/04/07 04:11:45;;;;;;;28.27;17.45;;;;;;;5.90;46.98;99289.72;5052053;28;20159;-86
2023/04/07 04:14:11;;;;;;;30.60;17.17;;;;;;;5.92;46.89;99278.31;5036977;28;20091;-87
2023/04/07 04:16:36;;;;;;;25.02;15.00;;;;;;;5.90;46.89;99284.16;5036318;28;20037;-86
2023/04/07 04:19:02;;;;;;;23.25;14.85;;;;;;;6.03;46.88;99287.28;5036584;28;20033;-86
2023/04/07 04:21:27;;;;;;;22.35;15.27;;;;;;;6.03;46.60;99282.56;5036274;28;20128;-86
2023/04/07 04:23:53;;;;;;;26.77;17.10;;;;;;;6.15;45.82;99290.34;5036429;28;20024;-86
2023/04/07 04:26:19;;;;;;;26.83;17.75;;;;;;;6.16;46.32;99286.44;5035163;28;20115;-86
2023/04/07 04:28:44;;;;;;;29.42;15.40;;;;;;;6.11;45.82;99294.06;5035660;28;20060;-86
2023/04/07 04:31:10;;;;;;;24.33;15.15;;;;;;;6.17;45.46;99298.38;5036470;28;20094;-86
2023/04/07 04:33:35;;;;;;;25.75;16.42;;;;;;;6.17;45.35;99299.19;5027714;28;20029;-86
2023/04/07 04:36:01;;;;;;;26.27;18.17;;;;;;;6.32;44.89;99303.59;5035867;28;20036;-86
2023/04/07 04:38:26;;;;;;;52.03;32.10;;;;;;;6.32;44.93;99309.16;5036375;28;20411;-86
2023/04/07 04:40:52;;;;;;;141.68;99.50;;;;;;;6.27;46.24;99297.34;5052974;28;20029;-86
2023/04/07 04:43:17;;;;;;;362.67;221.40;;;;;;;6.31;46.37;99307.53;5053728;28;20472;-86
2023/04/07 04:45:43;;;;;;;165.68;120.88;;;;;;;6.48;46.96;99319.94;5033145;28;20056;-86
2023/04/07 04:48:09;;;;;;;62.25;45.17;;;;;;;6.57;46.74;99323.63;5035697;28;20091;-86
2023/04/07 04:50:35;;;;;;;29.35;21.10;;;;;;;6.39;46.00;99314.28;5049551;28;20492;-86
2023/04/07 04:53:01;;;;;;;42.63;28.77;;;;;;;6.38;47.06;99320.16;5016403;28;20087;-86
2023/04/07 04:55:27;;;;;;;35.47;26.27;;;;;;;6.32;46.62;99311.94;5026080;28;20028;-86
2023/04/07 04:57:52;;;;;;;28.98;17.92;;;;;;;6.43;46.18;99325.63;5036201;28;20036;-86
2023/04/07 05:00:18;;;;;;;28.75;18.20;;;;;;;6.47;45.62;99323.84;5036061;28;20549;-86
2023/04/07 05:02:45;;;;;;;27.60;16.60;;;;;;;6.28;45.61;99307.31;5051256;28;20033;-86
2023/04/07 05:05:11;;;;;;;22.73;14.15;;;;;;;6.44;45.01;99327.25;5034731;28;20475;-86
2023/04/07 05:07:37;;;;;;;27.83;17.67;;;;;;;6.34;44.66;99328.31;5034370;28;20116;-86
2023/04/07 05:10:03;;;;;;;24.00;16.73;;;;;;;6.50;44.99;99319.63;5035366;28;20020;-86
2023/04/07 05:12:29;;;;;;;130.07;83.30;;;;;;;6.28;43.68;99335.94;5022174;28;20021;-86
2023/04/07 05:14:54;;;;;;;28.63;19.05;;;;;;;6.28;43.53;99338.72;5017507;28;20022;-86
2023/04/07 05:17:19;;;;;;;25.08;15.80;;;;;;;6.37;43.91;99329.63;5032777;28;20039;-86
2023/04/07 05:19:45;;;;;;;19.65;12.63;;;;;;;6.44;44.27;99333.63;5035093;28;20036;-86
2023/04/07 05:22:10;;;;;;;25.92;16.60;;;;;;;6.46;43.64;99338.88;5032799;28;20078;-86
2023/04/07 05:24:36;;;;;;;33.83;21.15;;;;;;;6.52;43.64;99342.38;5029854;28;20021;-85
2023/04/07 05:27:01;;;;;;;44.40;28.98;;;;;;;6.58;43.45;99344.72;5033204;28;20033;-86
2023/04/07 05:29:27;;;;;;;24.33;17.60;;;;;;;6.66;43.07;99345.13;5033006;28;20067;-86
2023/04/07 05:31:52;;;;;;;26.63;18.15;;;;;;;6.80;43.20;99340.38;5035541;28;20021;-86
2023/04/07 05:34:18;;;;;;;27.55;17.02;;;;;;;6.91;43.40;99357.63;5033540;28;20041;-86
2023/04/07 05:36:43;;;;;;;27.98;16.15;;;;;;;6.77;42.11;99351.28;5037503;28;20032;-86
2023/04/07 05:39:09;;;;;;;35.60;15.82;;;;;;;6.67;42.17;99339.25;5047119;28;20028;-86
2023/04/07 05:41:35;;;;;;;25.48;15.27;;;;;;;6.62;42.13;99335.75;5033320;28;20064;-85
2023/04/07 05:44:00;;;;;;;24.20;16.38;;;;;;;7.01;42.54;99353.81;5036817;28;20760;-86
2023/04/07 05:46:26;;;;;;;42.40;23.58;;;;;;;6.99;44.01;99325.47;5033573;28;20017;-86
2023/04/07 05:48:51;;;;;;;52.70;33.50;;;;;;;7.26;43.87;99352.34;5032822;28;20029;-87
2023/04/07 05:51:17;;;;;;;26.88;16.05;;;;;;;7.29;42.45;99354.50;5048293;28;20028;-87
2023/04/07 05:53:42;;;;;;;24.55;17.48;;;;;;;7.34;41.58;99349.97;5056328;28;20021;-86
2023/04/07 05:56:08;;;;;;;21.05;14.75;;;;;;;7.33;41.69;99349.13;5044405;28;20029;-86
2023/04/07 05:58:33;;;;;;;23.92;14.23;;;;;;;7.33;40.96;99349.13;5032405;28;20032;-86
2023/04/07 06:00:58;;;;;;;20.15;13.00;;;;;;;7.31;42.14;99329.16;5034323;28;20044;-87
2023/04/07 06:03:24;;;;;;;24.35;15.52;;;;;;;7.46;42.32;99353.00;5049756;28;20024;-86
2023/04/07 06:05:49;;;;;;;23.63;14.00;;;;;;;7.52;40.60;99350.91;5030336;28;20028;-86
2023/04/07 06:08:15;;;;;;;19.77;13.05;;;;;;;6.82;41.30;99338.09;5032482;28;20025;-87
2023/04/07 06:10:41;;;;;;;21.00;14.23;;;;;;;6.68;41.07;99335.34;5052705;28;20406;-86
2023/04/07 06:13:06;;;;;;;20.88;12.85;;;;;;;6.54;40.82;99349.28;5048446;28;20050;-87
2023/04/07 06:15:32;;;;;;;23.25;13.38;;;;;;;6.95;41.98;99327.25;5031044;28;20162;-86
2023/04/07 06:17:58;;;;;;;25.60;16.27;;;;;;;6.81;41.78;99350.34;5041353;28;20037;-86
2023/04/07 06:20:23;;;;;;;20.67;14.05;;;;;;;6.51;42.89;99344.31;5030949;28;20072;-87
2023/04/07 06:22:49;;;;;;;19.65;13.57;;;;;;;6.41;43.22;99359.25;5051867;28;20025;-86
2023/04/07 06:25:14;;;;;;;18.52;13.27;;;;;;;5.95;44.16;99341.53;5028195;28;20068;-86
2023/04/07 06:27:40;;;;;;;23.25;14.38;;;;;;;6.31;45.97;99351.97;5038846;28;20503;-85
2023/04/07 06:30:06;;;;;;;21.63;14.57;;;;;;;6.56;44.74;99360.06;5031225;28;21769;-86
2023/04/07 06:32:32;;;;;;;20.20;12.65;;;;;;;6.54;43.78;99356.78;5031078;28;20427;-86
2023/04/07 06:34:57;;;;;;;31.52;14.10;;;;;;;6.69;44.71;99359.22;5030328;28;20419;-85
2023/04/07 06:37:26;;;;;;;19.08;12.77;;;;;;;6.62;43.18;99349.66;5032640;28;20032;-85
2023/04/07 06:39:52;;;;;;;24.60;14.60;;;;;;;6.70;45.10;99369.22;5050465;28;20027;-85
2023/04/07 06:42:17;;;;;;;18.10;12.43;;;;;;;6.67;44.12;99366.25;5028749;28;20020;-86
2023/04/07 06:44:42;;;;;;;18.33;13.07;;;;;;;6.71;44.41;99367.25;5035527;28;20044;-86
2023/04/07 06:47:08;;;;;;;24.40;14.95;;;;;;;6.81;43.92;99371.75;5028626;28;20032;-85
2023/04/07 06:49:34;;;;;;;24.55;14.43;;;;;;;6.84;44.23;99377.53;5028947;28;20694;-86
2023/04/07 06:52:00;;;;;;;24.63;12.80;;;;;;;7.03;43.34;99357.09;5046579;28;20411;-86
2023/04/07 06:54:25;;;;;;;17.80;11.50;;;;;;;7.01;40.71;99365.72;5050290;28;20025;-86
2023/04/07 06:56:50;;;;;;;25.42;12.52;;;;;;;7.14;42.56;99366.00;5032261;28;20028;-86
2023/04/07 06:59:16;;;;;;;22.70;16.73;;;;;;;7.22;40.90;99356.06;5051968;28;20461;-86
2023/04/07 07:01:42;;;;;;;18.58;12.10;;;;;;;7.18;40.20;99358.69;5040913;28;20021;-85
2023/04/07 07:04:08;;;;;;;25.42;14.00;;;;;;;7.33;41.66;99357.47;5046376;28;20121;-85
2023/04/07 07:06:33;;;;;;;18.55;11.68;;;;;;;7.40;39.37;99357.88;5033564;28;20025;-86
2023/04/07 07:08:59;;;;;;;14.43;10.38;;;;;;;7.55;39.07;99372.53;5046177;28;20031;-86
2023/04/07 07:11:26;;;;;;;20.00;11.23;;;;;;;7.82;38.23;99354.00;5038982;28;20026;-86
2023/04/07 07:13:51;;;;;;;15.48;10.80;;;;;;;8.01;40.32;99365.75;5030893;28;20143;-85
2023/04/07 07:16:16;;;;;;;14.68;10.55;;;;;;;8.13;38.84;99370.72;5030593;28;20071;-87
2023/04/07 07:18:42;;;;;;;19.40;12.05;;;;;;;8.22;39.95;99370.78;5031079;28;20028;-85
2023/04/07 07:21:07;;;;;;;17.05;11.10;;;;;;;8.48;38.10;99358.06;5053778;28;20577;-84
2023/04/07 07:23:33;;;;;;;15.38;10.70;;;;;;;8.27;37.62;99365.03;5032449;28;20028;-85
2023/04/07 07:25:59;;;;;;;18.13;11.70;;;;;;;8.18;38.68;99360.59;5033366;28;20055;-86
2023/04/07 07:28:25;;;;;;;17.02;10.90;;;;;;;8.30;38.00;99369.16;5035676;28;20029;-85
2023/04/07 07:30:50;;;;;;;17.70;9.95;;;;;;;8.62;37.27;99363.53;5033315;28;20045;-86
2023/04/07 07:33:16;;;;;;;19.60;11.55;;;;;;;8.31;37.15;99362.44;5032584;28;20075;-86
2023/04/07 07:35:41;;;;;;;16.55;10.32;;;;;;;8.04;36.57;99361.50;5045021;28;20044;-87
2023/04/07 07:38:07;;;;;;;14.93;9.68;;;;;;;8.08;36.86;99362.50;5044571;28;20021;-86
2023/04/07 07:40:32;;;;;;;16.40;9.23;;;;;;;8.10;37.40;99363.00;5032373;28;20021;-85
2023/04/07 07:42:59;;;;;;;15.13;9.27;;;;;;;8.10;36.91;99362.19;5032313;28;20399;-85
2023/04/07 07:45:25;;;;;;;17.23;9.80;;;;;;;8.33;37.00;99362.94;5031483;28;20033;-85
2023/04/07 07:47:50;;;;;;;11.65;8.70;;;;;;;8.66;36.58;99361.72;5037105;28;20535;-85
2023/04/07 07:50:16;;;;;;;19.63;13.70;;;;;;;9.26;35.69;99362.13;5047459;28;20496;-85
2023/04/07 07:52:42;;;;;;;12.85;8.85;;;;;;;9.21;34.90;99354.72;5039899;28;20032;-84
2023/04/07 07:55:08;;;;;;;18.17;8.82;;;;;;;9.06;35.18;99358.00;5045972;28;20814;-85
2023/04/07 07:57:33;;;;;;;11.10;8.80;;;;;;;9.54;34.65;99353.41;5038227;28;20032;-84
2023/04/07 07:59:59;;;;;;;12.02;8.52;;;;;;;10.04;34.07;99356.72;5044239;28;20518;-86
2023/04/07 08:02:29;;;;;;;12.40;8.40;;;;;;;10.07;34.22;99354.06;5039232;28;20063;-85
2023/04/07 08:04:55;;;;;;;;;;;;;;;9.81;33.79;99356.97;5035439;28;20029;-85
2023/04/07 08:07:20;;;;;;;16.50;8.80;;;;;;;9.97;33.45;99354.44;5057592;28;20367;-85
2023/04/07 08:09:46;;;;;;;12.93;8.88;;;;;;;10.31;33.03;99343.47;5048955;28;20035;-84
2023/04/07 08:12:11;;;;;;;13.43;9.60;;;;;;;10.14;34.24;99342.38;5055620;28;20506;-84
2023/04/07 08:14:37;;;;;;;13.43;8.45;;;;;;;9.81;32.98;99351.38;5053567;28;20075;-86
2023/04/07 08:17:02;;;;;;;9.95;8.32;;;;;;;9.64;34.33;99347.44;5034848;28;20070;-85
2023/04/07 08:19:28;;;;;;;11.23;8.43;;;;;;;10.25;33.32;99343.63;5053869;28;20511;-84
2023/04/07 08:21:53;;;;;;;12.15;8.38;;;;;;;10.46;32.46;99340.09;5036019;28;20038;-85
2023/04/07 08:24:19;;;;;;;11.32;7.88;;;;;;;10.05;33.33;99342.41;5048972;28;20040;-85
2023/04/07 08:26:44;;;;;;;11.52;8.52;;;;;;;10.24;32.64;99336.41;5056430;28;20029;-86
2023/04/07 08:29:10;;;;;;;10.65;8.50;;;;;;;10.19;33.50;99339.41;5032172;28;20044;-87
2023/04/07 08:31:35;;;;;;;13.65;9.35;;;;;;;10.69;33.03;99330.63;5033769;28;20407;-86
2023/04/07 08:34:00;;;;;;;9.23;7.72;;;;;;;10.84;32.52;99323.56;5017565;28;20057;-85
2023/04/07 08:36:27;;;;;;;9.85;7.88;;;;;;;10.71;33.48;99331.91;5045539;28;20034;-85
2023/04/07 08:38:53;;;;;;;9.20;7.90;;;;;;;10.82;33.78;99316.34;5053774;28;20059;-85
2023/04/07 08:41:39;;;;;;;15.20;9.27;;;;;;;10.55;33.70;99314.06;5045123;28;20483;-85
2023/04/07 08:44:06;;;;;;;11.18;8.32;;;;;;;10.87;32.84;99308.94;5037271;28;20032;-85
2023/04/07 08:46:33;;;;;;;11.98;8.95;;;;;;;11.37;33.35;99307.16;5041255;28;20539;-86
2023/04/07 08:49:00;;;;;;;11.18;8.63;;;;;;;11.58;32.78;99315.50;5035958;28;20226;-85
2023/04/07 08:51:31;;;;;;;16.90;9.05;;;;;;;11.16;32.67;99310.00;5035248;28;20104;-84
2023/04/07 08:54:04;;;;;;;10.43;7.13;;;;;;;11.27;32.26;99304.78;5031851;28;20033;-84
2023/04/07 08:56:32;;;;;;;9.13;7.45;;;;;;;11.92;31.57;99299.47;5035304;28;20619;-84
2023/04/07 08:58:58;;;;;;;11.32;7.38;;;;;;;12.33;31.30;99307.25;5040198;28;20072;-83
2023/04/07 09:01:24;;;;;;;13.73;6.97;;;;;;;11.62;30.35;99296.88;5035088;28;20056;-85
2023/04/07 09:03:50;;;;;;;7.82;6.82;;;;;;;11.88;30.34;99304.16;5051815;28;20024;-86
2023/04/07 09:06:16;;;;;;;8.70;7.18;;;;;;;12.06;30.92;99304.78;5040949;28;20036;-85
2023/04/07 09:08:41;;;;;;;9.82;6.78;;;;;;;11.87;31.53;99293.28;5040081;28;20067;-85
2023/04/07 09:11:07;;;;;;;10.52;7.38;;;;;;;11.20;31.44;99274.53;5052827;28;20610;-86
2023/04/07 09:13:32;;;;;;;8.70;6.40;;;;;;;11.17;31.71;99292.03;5033297;28;20037;-85
2023/04/07 09:16:00;;;;;;;11.98;8.23;;;;;;;11.84;32.09;99303.22;5050443;28;20059;-85
2023/04/07 09:18:27;;;;;;;10.73;7.95;;;;;;;12.48;30.69;99292.50;5037233;28;20029;-84
2023/04/07 09:20:55;;;;;;;9.27;7.10;;;;;;;12.15;31.20;99289.84;5034944;28;20496;-85
2023/04/07 09:23:35;;;;;;;13.65;8.10;;;;;;;12.59;32.38;99280.81;5035368;28;20111;-86
2023/04/07 09:26:23;;;;;;;12.20;7.27;;;;;;;13.03;31.39;99282.91;5053244;28;20025;-86
2023/04/07 09:28:53;;;;;;;13.57;7.25;;;;;;;13.20;31.18;99245.28;5032129;28;20455;-85
2023/04/07 09:31:20;;;;;;;7.65;6.30;;;;;;;12.52;31.01;99277.78;5032515;28;20028;-85
2023/04/07 09:33:46;;;;;;;18.88;8.10;;;;;;;12.25;31.26;99271.72;5052931;28;20029;-85
2023/04/07 09:36:12;;;;;;;12.15;8.00;;;;;;;12.92;31.80;99272.19;5045555;28;20031;-86
2023/04/07 09:38:39;;;;;;;12.45;8.43;;;;;;;13.35;32.72;99271.78;5039321;28;20033;-86
2023/04/07 09:41:18;;;;;;;8.98;6.68;;;;;;;13.71;32.01;99286.00;5038507;28;20499;-83
2023/04/07 09:43:45;;;;;;;9.25;7.10;;;;;;;14.03;31.24;99281.22;5033357;28;20020;-83
2023/04/07 09:46:20;;;;;;;8.75;5.38;;;;;;;14.39;29.32;99277.66;5031442;28;20189;-83
2023/04/07 09:48:45;;;;;;;6.85;5.63;;;;;;;14.35;29.94;99271.13;5051322;28;20025;-83
2023/04/07 09:51:17;;;;;;;7.88;5.90;;;;;;;13.74;27.69;99274.03;5032287;28;20407;-83
2023/04/07 09:53:50;;;;;;;9.27;5.63;;;;;;;13.87;28.51;99289.63;5034832;28;20112;-83
2023/04/07 09:56:17;;;;;;;9.77;5.63;;;;;;;12.87;29.64;99274.41;5034792;28;20029;-83
2023/04/07 09:58:45;;;;;;;7.80;5.57;;;;;;;12.49;29.62;99288.53;5031367;28;20470;-84
2023/04/07 10:01:11;;;;;;;7.35;5.57;;;;;;;12.73;31.12;99288.81;5049265;28;20025;-82
2023/04/07 10:03:37;;;;;;;6.90;5.78;;;;;;;12.56;30.05;99267.50;5049022;28;20028;-83
2023/04/07 10:06:07;;;;;;;7.38;5.75;;;;;;;13.00;32.03;99284.44;5049583;28;20039;-83
2023/04/07 10:08:35;;;;;;;8.05;5.57;;;;;;;13.84;31.02;99301.63;5022910;28;20154;-84
2023/04/07 10:11:02;;;;;;;12.02;6.18;;;;;;;14.21;29.29;99300.53;5036520;28;20518;-82
2023/04/07 10:13:32;;;;;;;11.13;6.80;;;;;;;14.31;27.66;99293.53;5029642;28;20054;-84
2023/04/07 10:15:59;;;;;;;8.75;5.93;;;;;;;14.63;28.93;99276.59;5032527;28;20101;-83
2023/04/07 10:18:30;;;;;;;14.20;5.57;;;;;;;15.11;29.17;99281.28;5050177;28;20528;-83
2023/04/07 10:20:59;;;;;;;7.55;5.80;;;;;;;14.54;29.42;99290.06;5037103;28;20033;-82
2023/04/07 10:23:31;;;;;;;9.13;5.82;;;;;;;14.59;31.08;99289.75;5033722;28;20042;-83
2023/04/07 10:25:58;;;;;;;9.15;6.20;;;;;;;14.53;29.24;99279.97;5051466;28;20020;-83
2023/04/07 10:28:26;;;;;;;7.75;6.55;;;;;;;14.99;29.82;99279.41;5037433;28;20036;-83
2023/04/07 10:30:53;;;;;;;8.55;5.90;;;;;;;14.92;28.79;99271.63;5029267;28;20021;-83
2023/04/07 10:33:50;;;;;;;9.90;6.18;;;;;;;14.88;29.75;99273.56;5035479;28;20025;-83
2023/04/07 10:36:20;;;;;;;7.93;6.30;;;;;;;14.99;28.53;99270.97;5024713;28;20045;-83
2023/04/07 10:39:07;;;;;;;7.65;5.93;;;;;;;15.53;27.95;99272.03;5032938;28;20484;-83
2023/04/07 10:41:40;;;;;;;9.05;6.05;;;;;;;15.65;27.92;99271.06;5033030;28;20491;-83
2023/04/07 10:44:07;;;;;;;13.80;7.32;;;;;;;15.46;27.77;99271.09;5033203;28;20085;-83
2023/04/07 10:46:48;;;;;;;16.52;6.38;;;;;;;15.57;26.94;99272.09;5048519;28;20040;-84
2023/04/07 10:49:15;;;;;;;;;;;;;;;15.75;26.42;99274.44;5031836;28;20519;-84
2023/04/07 10:51:41;;;;;;;12.18;5.93;;;;;;;16.06;27.10;99264.94;5030579;28;19935;-83
2023/04/07 10:54:25;;;;;;;8.95;6.05;;;;;;;16.37;26.70;99277.13;5037849;28;20033;-83
2023/04/07 10:57:12;;;;;;;8.95;5.85;;;;;;;16.42;26.06;99271.16;5029437;28;20515;-83
2023/04/07 11:00:10;;;;;;;8.95;5.57;;;;;;;16.30;26.12;99271.38;5037157;28;20037;-83
2023/04/07 11:02:38;;;;;;;7.13;5.40;;;;;;;15.92;27.35;99259.88;5029764;28;20036;-83
2023/04/07 11:05:03;;;;;;;7.57;6.13;;;;;;;16.18;27.99;99249.00;5030213;28;20565;-83
2023/04/07 11:07:54;;;;;;;6.60;5.20;;;;;;;15.82;28.00;99241.56;5027693;28;20045;-83
2023/04/07 11:10:20;;;;;;;18.23;9.60;;;;;;;15.87;30.36;99260.16;5023259;28;20071;-83
2023/04/07 11:13:12;;;;;;;16.50;8.65;;;;;;;15.93;27.47;99253.03;5026940;28;20419;-83
2023/04/07 11:15:38;;;;;;;12.75;6.90;;;;;;;16.32;26.65;99251.22;5029633;28;20033;-84
2023/04/07 11:18:09;;;;;;;8.82;6.35;;;;;;;16.35;27.02;99256.09;5047026;28;20461;-82
2023/04/07 11:20:52;;;;;;;8.77;6.30;;;;;;;16.40;26.96;99250.94;5042044;28;20061;-82
2023/04/07 11:23:19;;;;;;;13.07;7.32;;;;;;;16.18;28.88;99257.47;5038859;28;20017;-83
2023/04/07 11:25:47;;;;;;;6.78;5.50;;;;;;;16.34;28.04;99263.78;5023140;28;20026;-82
2023/04/07 11:28:14;;;;;;;10.43;6.15;;;;;;;16.39;29.02;99254.16;5035097;28;20133;-82